Time;durP1;ratioP1;P1;durP2;ratioP2;P2;SDS_P1;SDS_P2;PMS_P1;PMS_P2;Temp;Humidity;BMP_temperature;BMP_pressure;BME280_temperature;BME280_humidity;BME280_pressure;Samples;Min_cycle;Max_cycle;Signal;HPM_P1;HPM_P2
2022/11/25 00:01:34;;;;;;;2.70;2.60;;;;;;;10.25;83.92;99005.72;5111027;28;20210;-59
2022/11/25 00:04:02;;;;;;;2.40;2.30;;;;;;;10.25;84.29;99005.72;5110230;28;20203;-59
2022/11/25 00:06:31;;;;;;;2.97;2.77;;;;;;;10.23;84.15;99002.31;5111299;28;20201;-60
2022/11/25 00:08:59;;;;;;;2.80;2.70;;;;;;;10.26;84.18;99005.66;5108088;28;20198;-53
2022/11/25 00:11:27;;;;;;;3.00;2.80;;;;;;;10.25;84.05;99016.09;5090509;28;20187;-55
2022/11/25 00:13:55;;;;;;;2.80;2.70;;;;;;;10.21;84.34;99014.50;5090594;28;20195;-53
2022/11/25 00:16:25;;;;;;;2.90;2.70;;;;;;;10.14;84.97;99017.28;5090660;28;20697;-59
2022/11/25 00:18:55;;;;;;;2.90;2.73;;;;;;;10.16;84.47;99004.22;5090276;28;20227;-59
2022/11/25 00:21:24;;;;;;;2.97;2.77;;;;;;;10.20;84.32;99016.22;5090341;28;20229;-59
2022/11/25 00:23:52;;;;;;;5.23;2.97;;;;;;;10.23;84.46;99010.09;5090675;28;20635;-60
2022/11/25 00:26:19;;;;;;;2.47;2.37;;;;;;;10.24;84.61;99009.19;5090630;28;20554;-60
2022/11/25 00:28:47;;;;;;;2.83;2.70;;;;;;;10.16;84.67;99010.25;5090288;28;20581;-60
2022/11/25 00:31:15;;;;;;;2.90;2.70;;;;;;;10.15;84.44;99016.38;5090171;28;20674;-59
2022/11/25 00:33:43;;;;;;;3.00;2.80;;;;;;;10.13;84.24;99007.81;5090410;28;20630;-59
2022/11/25 00:36:16;;;;;;;2.93;2.73;;;;;;;10.18;84.01;99018.03;5090630;28;20648;-59
2022/11/25 00:38:44;;;;;;;2.87;2.67;;;;;;;10.19;84.14;99017.97;5090245;28;20195;-59
2022/11/25 00:46:40;;;;;;;2.60;2.47;;;;;;;10.20;84.10;99018.81;5089978;28;20202;-53
2022/11/25 00:49:07;;;;;;;3.43;2.80;;;;;;;10.16;83.79;99015.44;5090125;28;20213;-53
2022/11/25 00:51:35;;;;;;;2.53;2.33;;;;;;;10.17;84.23;99024.06;5089943;28;20192;-53
2022/11/25 00:54:02;;;;;;;2.83;2.70;;;;;;;10.17;84.29;99008.53;5089961;28;20226;-53
2022/11/25 00:56:29;;;;;;;2.43;2.33;;;;;;;10.27;83.46;99022.88;5090058;28;20667;-54
2022/11/25 00:58:56;;;;;;;2.97;2.77;;;;;;;10.24;83.26;99024.75;5089766;28;20200;-54
2022/11/25 01:01:24;;;;;;;2.83;2.63;;;;;;;10.24;83.80;99024.75;5089961;28;20228;-53
2022/11/25 01:03:51;;;;;;;2.10;2.00;;;;;;;10.28;83.16;99023.72;5089868;28;20203;-53
2022/11/25 01:06:18;;;;;;;2.83;2.33;;;;;;;10.23;83.23;99028.25;5089796;28;20196;-54
2022/11/25 01:08:46;;;;;;;2.57;2.37;;;;;;;10.28;83.05;99019.41;5089529;28;20210;-52
2022/11/25 01:11:16;;;;;;;2.50;2.30;;;;;;;10.34;82.23;99028.72;5089929;28;20584;-54
2022/11/25 01:13:43;;;;;;;2.70;2.50;;;;;;;10.38;82.44;99025.97;5089552;28;20571;-59
2022/11/25 01:16:14;;;;;;;3.30;2.50;;;;;;;10.38;81.96;99028.56;5089536;28;20199;-59
2022/11/25 01:18:41;;;;;;;2.73;2.53;;;;;;;10.46;81.79;99028.28;5089358;28;20793;-59
2022/11/25 01:21:09;;;;;;;1.93;1.83;;;;;;;10.30;81.19;99011.56;5089503;28;20206;-59
2022/11/25 01:23:37;;;;;;;2.10;2.00;;;;;;;10.35;80.95;99023.47;5089682;28;20195;-60
2022/11/25 01:26:06;;;;;;;1.97;1.87;;;;;;;10.31;81.21;99028.81;5089685;28;20199;-54
2022/11/25 01:28:34;;;;;;;2.00;1.90;;;;;;;10.33;80.99;99033.06;5089636;28;20191;-60
2022/11/25 01:31:02;;;;;;;2.47;2.10;;;;;;;10.28;81.01;99028.91;5089299;28;20278;-59
2022/11/25 01:33:31;;;;;;;3.47;2.23;;;;;;;10.28;81.40;99018.53;5089912;28;20197;-59
2022/11/25 01:36:01;;;;;;;1.90;1.80;;;;;;;10.24;81.21;99019.56;5089464;28;20199;-59
2022/11/25 01:38:28;;;;;;;4.07;2.53;;;;;;;10.21;81.29;99030.06;5089513;28;20221;-60
2022/11/25 01:40:55;;;;;;;2.83;2.10;;;;;;;10.23;81.14;99036.03;5089743;28;20199;-53
2022/11/25 01:43:23;;;;;;;2.27;2.07;;;;;;;10.17;81.79;99016.28;5089323;28;20223;-53
2022/11/25 01:45:51;;;;;;;2.73;2.43;;;;;;;10.19;81.94;99030.94;5089438;28;20249;-53
2022/11/25 01:48:22;;;;;;;2.50;2.17;;;;;;;10.21;81.86;99025.72;5089247;28;20685;-53
2022/11/25 01:50:50;;;;;;;2.53;2.30;;;;;;;10.24;81.88;99037.72;5089375;28;20233;-53
2022/11/25 01:53:20;;;;;;;2.87;2.10;;;;;;;10.19;82.25;99033.53;5089349;28;20195;-53
2022/11/25 01:55:52;;;;;;;2.37;2.27;;;;;;;10.14;82.41;99032.84;5089380;28;20195;-52
2022/11/25 01:58:22;;;;;;;2.37;2.20;;;;;;;10.08;82.60;99038.22;5089416;28;20211;-53
2022/11/25 02:00:51;;;;;;;3.17;2.90;;;;;;;10.09;82.82;99042.50;5089047;28;20199;-53
2022/11/25 02:03:22;;;;;;;2.80;2.57;;;;;;;10.11;82.92;99047.66;5089164;28;20222;-52
2022/11/25 02:05:54;;;;;;;2.40;2.30;;;;;;;10.13;82.97;99040.66;5089157;28;20192;-52
2022/11/25 02:08:23;;;;;;;2.67;2.53;;;;;;;10.11;83.44;99043.31;5089297;28;20911;-53
2022/11/25 02:10:54;;;;;;;2.93;2.73;;;;;;;10.12;83.16;99050.19;5089251;28;20200;-53
2022/11/25 02:13:22;;;;;;;3.17;2.90;;;;;;;10.11;83.39;99043.31;5089090;28;20291;-53
2022/11/25 02:15:50;;;;;;;3.37;2.93;;;;;;;10.00;83.28;99041.97;5089075;28;20215;-53
2022/11/25 02:18:17;;;;;;;6.67;3.63;;;;;;;9.97;83.62;99042.06;5089099;28;20608;-59
2022/11/25 02:20:44;;;;;;;3.93;3.63;;;;;;;10.05;83.95;99053.88;5089001;28;20206;-54
2022/11/25 02:23:24;;;;;;;4.17;3.77;;;;;;;10.07;83.73;99041.72;5089086;28;20223;-54
2022/11/25 02:25:53;;;;;;;4.33;3.67;;;;;;;10.13;83.78;99045.84;5089468;28;20199;-54
2022/11/25 02:28:22;;;;;;;4.30;3.90;;;;;;;10.11;83.91;99051.09;5092860;28;20221;-60
2022/11/25 02:30:50;;;;;;;4.10;3.77;;;;;;;10.02;83.98;99038.44;5092821;28;20569;-60
2022/11/25 02:33:17;;;;;;;5.57;4.20;;;;;;;10.13;83.60;99061.41;5092602;28;20206;-60
2022/11/25 02:35:48;;;;;;;4.03;3.63;;;;;;;10.14;83.49;99047.53;5092435;28;20256;-60
2022/11/25 02:38:19;;;;;;;3.77;3.57;;;;;;;10.16;83.10;99041.38;5092374;28;20225;-54
2022/11/25 02:40:49;;;;;;;4.00;3.70;;;;;;;10.19;83.53;99049.09;5092287;28;20206;-60
2022/11/25 02:43:18;;;;;;;4.00;3.70;;;;;;;10.13;83.34;99027.69;5092579;28;20721;-53
2022/11/25 02:45:52;;;;;;;3.60;3.40;;;;;;;10.11;83.36;99038.13;5092340;28;20217;-54
2022/11/25 02:48:19;;;;;;;4.63;3.50;;;;;;;10.16;82.77;99045.72;5092270;28;20644;-59
2022/11/25 02:50:46;;;;;;;3.77;3.47;;;;;;;10.13;82.81;99046.69;5092018;28;20195;-53
2022/11/25 02:53:13;;;;;;;4.23;3.10;;;;;;;10.11;82.53;99043.31;5092394;28;20195;-54
2022/11/25 02:55:41;;;;;;;3.13;2.93;;;;;;;10.15;82.39;99042.31;5092052;28;20205;-53
2022/11/25 02:58:08;;;;;;;3.03;2.83;;;;;;;10.10;82.07;99043.34;5092026;28;20192;-53
2022/11/25 03:00:36;;;;;;;3.13;2.93;;;;;;;10.15;82.45;99054.44;5092095;28;20199;-53
2022/11/25 03:03:03;;;;;;;3.00;2.80;;;;;;;10.12;81.68;99037.22;5092212;28;20728;-54
2022/11/25 03:05:30;;;;;;;3.53;2.93;;;;;;;10.15;81.69;99054.44;5091973;28;20195;-53
2022/11/25 03:07:57;;;;;;;2.83;2.73;;;;;;;10.15;81.51;99050.09;5091771;28;20203;-53
2022/11/25 03:10:24;;;;;;;3.20;2.97;;;;;;;10.16;81.75;99056.09;5092035;28;20558;-54
2022/11/25 03:12:51;;;;;;;2.70;2.60;;;;;;;10.13;81.62;99049.28;5091792;28;20660;-52
2022/11/25 03:15:19;;;;;;;3.43;3.03;;;;;;;10.19;81.78;99056.03;5091670;28;20282;-53
2022/11/25 03:17:47;;;;;;;4.07;3.40;;;;;;;10.07;81.68;99038.25;5091272;28;20206;-60
2022/11/25 03:20:14;;;;;;;3.10;2.90;;;;;;;10.18;81.76;99054.34;5091531;28;20198;-60
2022/11/25 03:22:42;;;;;;;3.00;2.70;;;;;;;10.17;81.55;99052.59;5091443;28;20229;-59
2022/11/25 03:25:10;;;;;;;3.30;3.07;;;;;;;10.01;81.90;99039.34;5091910;28;20236;-59
2022/11/25 03:27:37;;;;;;;3.30;3.03;;;;;;;10.08;81.79;99051.19;5091549;28;20195;-59
2022/11/25 03:30:06;;;;;;;5.47;3.07;;;;;;;10.13;81.75;99054.47;5091698;28;20580;-60
2022/11/25 03:32:33;;;;;;;4.47;3.80;;;;;;;10.10;81.51;99046.78;5091383;28;20195;-60
2022/11/25 03:35:01;;;;;;;4.00;3.70;;;;;;;10.11;81.69;99050.25;5091418;28;20238;-52
2022/11/25 03:37:28;;;;;;;3.90;3.63;;;;;;;10.10;81.72;99044.19;5091218;28;20201;-53
2022/11/25 03:39:55;;;;;;;3.47;3.27;;;;;;;10.03;81.64;99047.91;5091371;28;20195;-53
2022/11/25 03:42:22;;;;;;;3.20;3.00;;;;;;;10.15;81.63;99049.25;5091239;28;20223;-52
2022/11/25 03:44:49;;;;;;;3.50;3.30;;;;;;;10.04;81.60;99052.22;5091100;28;20191;-52
2022/11/25 03:47:16;;;;;;;3.40;3.20;;;;;;;10.09;81.88;99052.88;5091052;28;20195;-53
2022/11/25 03:49:43;;;;;;;3.13;2.93;;;;;;;10.17;81.37;99066.41;5091197;28;20203;-53
2022/11/25 03:52:11;;;;;;;3.30;3.00;;;;;;;10.22;81.68;99070.66;5091188;28;20195;-53
2022/11/25 03:54:38;;;;;;;3.63;3.43;;;;;;;10.12;81.72;99063.16;5091142;28;20191;-59
2022/11/25 03:57:05;;;;;;;3.87;3.57;;;;;;;10.16;82.31;99072.50;5091235;28;20678;-59
2022/11/25 03:59:32;;;;;;;3.73;3.43;;;;;;;10.21;81.81;99079.31;5090793;28;20199;-60
2022/11/25 04:01:59;;;;;;;4.20;3.30;;;;;;;10.22;81.21;99081.03;5090537;28;20195;-59
2022/11/25 04:04:26;;;;;;;3.17;2.97;;;;;;;10.28;80.88;99078.19;5090813;28;20667;-60
2022/11/25 04:06:53;;;;;;;3.40;3.20;;;;;;;10.25;80.52;99076.59;5090764;28;20195;-60
2022/11/25 04:09:21;;;;;;;3.30;3.10;;;;;;;10.32;80.90;99082.41;5090885;28;20213;-60
2022/11/25 04:14:33;;;;;;;3.40;3.20;;;;;;;10.35;80.71;99075.38;5106749;28;20584;-60
2022/11/25 04:17:00;;;;;;;3.13;2.93;;;;;;;10.34;80.02;99080.59;5110917;28;20208;-60
2022/11/25 04:19:27;;;;;;;3.67;3.37;;;;;;;10.35;80.14;99093.53;5110466;27;20317;-59
2022/11/25 04:21:53;;;;;;;3.00;2.80;;;;;;;10.37;80.14;99096.91;5110666;28;20195;-59
2022/11/25 04:24:22;;;;;;;2.97;2.77;;;;;;;10.25;80.44;99081.78;5110946;28;20201;-53
2022/11/25 04:26:49;;;;;;;25.33;3.80;;;;;;;10.27;80.06;99094.69;5110631;28;20241;-54
2022/11/25 04:29:16;;;;;;;2.97;2.77;;;;;;;10.26;80.48;99108.56;5108609;28;20187;-53
2022/11/25 04:31:42;;;;;;;3.37;2.80;;;;;;;10.22;79.93;99107.81;5109108;28;20187;-53
2022/11/25 04:34:09;;;;;;;3.37;3.17;;;;;;;10.20;80.30;99109.59;5110386;28;20191;-54
2022/11/25 04:36:36;;;;;;;3.23;2.83;;;;;;;10.24;80.00;99107.75;5110169;28;20198;-57
2022/11/25 04:39:04;;;;;;;3.50;3.20;;;;;;;10.20;80.21;99104.41;5110547;28;20670;-57
2022/11/25 04:41:32;;;;;;;3.67;3.10;;;;;;;10.16;80.91;99102.78;5110266;28;20696;-58
2022/11/25 04:44:00;;;;;;;4.13;3.33;;;;;;;10.22;80.70;99113.00;5099029;28;20261;-54
2022/11/25 04:46:34;;;;;;;3.40;3.20;;;;;;;10.18;80.68;99111.38;5089873;28;20215;-58
2022/11/25 04:49:01;;;;;;;4.17;2.90;;;;;;;10.10;80.67;99095.22;5089436;28;20223;-59
2022/11/25 04:51:27;;;;;;;4.33;3.83;;;;;;;10.11;81.06;99113.31;5089606;28;20233;-59
2022/11/25 04:53:54;;;;;;;3.67;3.37;;;;;;;10.09;81.23;99109.94;5089633;28;20230;-58
2022/11/25 04:56:21;;;;;;;3.67;3.47;;;;;;;10.13;80.85;99118.47;5089049;28;20227;-57
2022/11/25 05:01:34;;;;;;;3.40;3.20;;;;;;;10.08;81.24;99115.16;5101606;28;20768;-58
2022/11/25 05:04:01;;;;;;;4.10;3.60;;;;;;;10.10;82.54;99126.34;5109806;28;20231;-60
2022/11/25 05:06:28;;;;;;;3.30;3.00;;;;;;;10.07;81.59;99132.47;5109257;28;20225;-58
2022/11/25 05:08:55;;;;;;;3.40;3.10;;;;;;;10.10;84.53;99134.97;5108541;28;20638;-59
2022/11/25 05:11:22;;;;;;;3.30;3.10;;;;;;;10.12;82.42;99137.50;5107125;28;20202;-60
2022/11/25 05:13:50;;;;;;;3.30;3.10;;;;;;;10.11;81.75;99130.63;5108779;28;20205;-59
2022/11/25 05:16:17;;;;;;;3.43;3.13;;;;;;;10.10;81.61;99139.31;5109269;28;20198;-59
2022/11/25 05:18:44;;;;;;;3.50;3.20;;;;;;;10.09;81.72;99143.63;5108786;28;20231;-59
2022/11/25 05:21:10;;;;;;;4.87;3.40;;;;;;;10.11;81.17;99157.41;5109279;28;20194;-59
2022/11/25 05:23:37;;;;;;;4.23;3.17;;;;;;;10.11;80.99;99157.41;5109356;28;20214;-60
2022/11/25 05:26:05;;;;;;;4.03;3.23;;;;;;;10.05;81.05;99147.22;5109498;28;20198;-59
2022/11/25 05:28:32;;;;;;;3.67;3.23;;;;;;;10.03;81.31;99150.78;5109754;28;20190;-59
2022/11/25 05:31:00;;;;;;;3.40;3.20;;;;;;;10.08;80.87;99162.69;5109747;28;20195;-59
2022/11/25 05:33:28;;;;;;;3.90;3.10;;;;;;;10.06;80.76;99169.66;5109616;28;20191;-60
2022/11/25 05:35:56;;;;;;;3.90;3.13;;;;;;;10.07;80.78;99176.53;5109877;28;20204;-60
2022/11/25 05:38:23;;;;;;;3.37;3.10;;;;;;;10.07;81.03;99168.75;5109910;28;20581;-60
2022/11/25 05:40:50;;;;;;;3.87;3.03;;;;;;;10.17;81.14;99190.91;5109616;28;20198;-59
2022/11/25 05:43:17;;;;;;;3.67;3.20;;;;;;;10.18;80.83;99189.19;5109585;28;20225;-54
2022/11/25 05:45:44;;;;;;;3.00;2.70;;;;;;;10.16;80.62;99186.59;5109774;28;20198;-54
2022/11/25 05:48:12;;;;;;;4.00;3.00;;;;;;;10.08;80.96;99186.03;5109782;28;20206;-54
2022/11/25 05:50:39;;;;;;;2.53;2.43;;;;;;;10.13;80.39;99199.69;5109555;28;20198;-60
2022/11/25 05:53:06;;;;;;;2.90;2.70;;;;;;;10.17;81.33;99210.81;5109757;28;20197;-60
2022/11/25 05:55:33;;;;;;;4.27;2.40;;;;;;;10.17;81.12;99211.66;5109505;28;20198;-60
2022/11/25 05:58:01;;;;;;;3.20;2.90;;;;;;;10.28;81.11;99219.13;5109504;28;20209;-60
2022/11/25 06:00:29;;;;;;;3.03;2.80;;;;;;;10.27;81.26;99214.00;5109285;28;20234;-60
2022/11/25 06:02:55;;;;;;;3.33;3.07;;;;;;;10.25;81.55;99221.84;5113026;28;20218;-60
2022/11/25 06:05:24;;;;;;;2.80;2.60;;;;;;;10.27;81.33;99224.38;5113601;28;20201;-59
2022/11/25 06:08:00;;;;;;;3.23;3.00;;;;;;;10.32;81.22;99222.47;5113992;28;20592;-57
2022/11/25 06:10:27;;;;;;;8.43;3.60;;;;;;;10.25;81.77;99226.16;5113327;28;20654;-54
2022/11/25 06:12:56;;;;;;;2.90;2.70;;;;;;;10.29;81.66;99225.16;5114143;27;20186;-59
2022/11/25 06:15:23;;;;;;;3.10;2.90;;;;;;;10.32;81.97;99238.03;5113825;27;20641;-60
2022/11/25 06:17:50;;;;;;;3.00;2.80;;;;;;;10.33;81.59;99238.00;5113102;27;20228;-55
2022/11/25 06:20:17;;;;;;;5.23;2.67;;;;;;;10.29;81.50;99249.34;5113094;27;20194;-54
2022/11/25 06:22:45;;;;;;;2.77;2.57;;;;;;;10.28;81.90;99250.25;5113126;28;20202;-54
2022/11/25 06:25:12;;;;;;;5.43;2.77;;;;;;;10.31;81.66;99251.91;5113219;28;20281;-54
2022/11/25 06:27:39;;;;;;;3.20;2.40;;;;;;;10.39;81.65;99263.72;5112896;28;20244;-55
2022/11/25 06:30:08;;;;;;;5.50;2.70;;;;;;;10.43;81.77;99264.47;5113342;28;20199;-56
2022/11/25 06:32:34;;;;;;;3.00;2.70;;;;;;;10.48;81.85;99270.38;5113070;28;20643;-55
2022/11/25 06:35:01;;;;;;;4.63;2.80;;;;;;;10.44;81.14;99274.81;5113222;28;20573;-59
2022/11/25 06:37:33;;;;;;;3.10;2.70;;;;;;;10.46;81.55;99279.97;5113237;27;20199;-60
2022/11/25 06:40:03;;;;;;;3.23;2.87;;;;;;;10.39;81.38;99284.47;5113155;28;20205;-60
2022/11/25 06:42:30;;;;;;;3.60;3.30;;;;;;;10.52;81.34;99296.16;5112832;28;20199;-59
2022/11/25 06:44:57;;;;;;;5.53;4.77;;;;;;;10.51;81.02;99291.03;5112528;28;20222;-59
2022/11/25 06:47:29;;;;;;;3.13;2.83;;;;;;;10.51;81.21;99296.22;5113336;28;20684;-61
2022/11/25 06:49:59;;;;;;;4.67;4.30;;;;;;;10.48;80.62;99286.81;5112747;28;20190;-57
2022/11/25 06:52:26;;;;;;;4.33;3.60;;;;;;;10.59;80.72;99298.59;5112821;28;20205;-59
2022/11/25 06:54:53;;;;;;;6.87;4.60;;;;;;;10.62;80.71;99299.31;5112203;28;20712;-55
2022/11/25 06:57:21;;;;;;;9.10;5.33;;;;;;;10.69;79.98;99302.56;5112376;28;20211;-54
2022/11/25 06:59:48;;;;;;;4.10;2.90;;;;;;;10.55;80.47;99308.19;5112216;28;20202;-55
2022/11/25 07:02:15;;;;;;;4.03;3.13;;;;;;;10.66;80.58;99313.03;5112490;28;20202;-55
2022/11/25 07:04:42;;;;;;;7.80;5.77;;;;;;;10.64;80.09;99302.72;5112144;28;20731;-54
2022/11/25 07:07:09;;;;;;;4.67;3.83;;;;;;;10.67;79.96;99328.56;5112174;27;20281;-55
2022/11/25 07:09:36;;;;;;;9.17;4.23;;;;;;;10.64;79.98;99318.28;5111994;28;20198;-55
2022/11/25 07:12:05;;;;;;;7.50;5.70;;;;;;;10.72;79.90;99320.66;5111921;28;20281;-55
2022/11/25 07:14:33;;;;;;;12.53;9.27;;;;;;;10.66;80.56;99326.03;5111897;28;20350;-55
2022/11/25 07:17:00;;;;;;;14.40;10.50;;;;;;;10.74;80.76;99327.47;5112418;28;20695;-59
2022/11/25 07:19:34;;;;;;;9.07;3.47;;;;;;;10.69;80.08;99315.56;5111959;28;20230;-64
2022/11/25 07:22:01;;;;;;;12.30;2.87;;;;;;;10.80;80.46;99326.44;5111985;28;20256;-59
2022/11/25 07:24:30;;;;;;;6.63;3.73;;;;;;;10.84;80.37;99331.47;5111789;28;20227;-60
2022/11/25 07:26:57;;;;;;;4.90;3.37;;;;;;;10.83;79.93;99324.59;5111949;28;20199;-59
2022/11/25 07:29:24;;;;;;;10.20;7.73;;;;;;;10.80;80.18;99334.22;5111470;28;20194;-59
2022/11/25 07:31:52;;;;;;;5.63;4.30;;;;;;;10.71;80.39;99342.31;5109763;28;20657;-59
2022/11/25 07:34:20;;;;;;;7.23;4.00;;;;;;;10.78;80.66;99342.06;5110453;28;20214;-59
2022/11/25 07:36:49;;;;;;;4.10;2.70;;;;;;;10.62;81.02;99338.25;5110574;28;20195;-59
2022/11/25 07:39:19;;;;;;;22.83;6.33;;;;;;;10.71;80.88;99343.16;5111079;28;20214;-59
2022/11/25 07:41:49;;;;;;;33.30;8.53;;;;;;;10.73;80.43;99354.31;5110622;28;20187;-59
2022/11/25 07:44:17;;;;;;;8.77;6.30;;;;;;;10.76;79.99;99348.19;5111282;28;20248;-58
2022/11/25 07:46:46;;;;;;;8.73;4.93;;;;;;;10.85;79.76;99353.94;5110399;28;20194;-59
2022/11/25 07:49:16;;;;;;;5.30;3.87;;;;;;;10.84;79.60;99354.81;5110714;28;20202;-58
2022/11/25 07:51:47;;;;;;;5.40;3.77;;;;;;;10.91;79.38;99363.28;5109802;28;20216;-59
2022/11/25 07:54:14;;;;;;;7.17;6.33;;;;;;;10.82;78.95;99325.50;5111202;28;20206;-59
2022/11/25 07:56:43;;;;;;;4.63;4.23;;;;;;;11.08;78.86;99370.50;5111090;28;20199;-59
2022/11/25 07:59:13;;;;;;;13.13;4.50;;;;;;;11.17;78.36;99363.25;5111294;28;20203;-58
2022/11/25 08:01:40;;;;;;;7.77;4.50;;;;;;;11.29;77.97;99377.56;5111404;28;20670;-59
2022/11/25 08:04:08;;;;;;;10.70;4.40;;;;;;;11.35;78.19;99379.97;5110005;28;20304;-58
2022/11/25 08:06:39;;;;;;;3.73;3.30;;;;;;;11.46;77.27;99377.88;5111081;28;20195;-54
2022/11/25 08:09:06;;;;;;;20.23;11.83;;;;;;;11.47;76.64;99376.97;5111157;28;20294;-55
2022/11/25 08:11:33;;;;;;;6.70;6.10;;;;;;;11.55;76.45;99381.88;5110970;28;20199;-54
2022/11/25 08:14:00;;;;;;;4.43;4.13;;;;;;;11.52;76.50;99372.44;5110904;28;20296;-54
2022/11/25 08:16:30;;;;;;;5.33;4.83;;;;;;;11.75;75.80;99376.84;5110987;28;20191;-55
2022/11/25 08:18:57;;;;;;;5.47;3.40;;;;;;;11.65;75.36;99378.91;5110494;28;20231;-54
2022/11/25 08:21:25;;;;;;;3.70;2.50;;;;;;;11.58;75.18;99384.38;5111084;28;20207;-55
2022/11/25 08:23:53;;;;;;;2.43;2.33;;;;;;;11.56;75.51;99400.03;5109903;28;20215;-55
2022/11/25 08:26:24;;;;;;;4.80;2.90;;;;;;;11.51;75.84;99399.31;5103882;28;20217;-55
2022/11/25 08:28:52;;;;;;;3.00;2.47;;;;;;;11.51;75.89;99391.53;5089958;28;20279;-55
2022/11/25 08:31:21;;;;;;;4.40;3.57;;;;;;;11.47;76.17;99389.97;5089203;28;20219;-59
2022/11/25 08:33:49;;;;;;;9.90;5.43;;;;;;;11.39;76.08;99397.19;5103104;28;20721;-58
2022/11/25 08:36:17;;;;;;;4.77;2.63;;;;;;;11.41;74.47;99390.16;5109946;28;20225;-58
2022/11/25 08:38:46;;;;;;;8.07;5.10;;;;;;;11.48;73.73;99390.81;5110500;28;20218;-58
2022/11/25 08:41:16;;;;;;;9.03;4.50;;;;;;;11.55;73.21;99406.13;5110032;28;20620;-54
2022/11/25 08:43:44;;;;;;;6.03;4.60;;;;;;;11.64;71.32;99395.41;5110115;28;20226;-59
2022/11/25 08:46:13;;;;;;;3.33;2.10;;;;;;;11.75;71.29;99386.38;5109435;28;20221;-58
2022/11/25 08:48:41;;;;;;;2.63;2.43;;;;;;;11.93;70.88;99391.81;5109694;28;20335;-59
2022/11/25 08:51:09;;;;;;;11.37;2.10;;;;;;;12.08;70.29;99392.13;5110135;28;20725;-59
2022/11/25 08:53:38;;;;;;;3.67;2.03;;;;;;;12.23;69.50;99387.22;5109577;28;20241;-59
2022/11/25 08:56:05;;;;;;;2.57;2.37;;;;;;;12.33;69.26;99393.78;5109740;28;20218;-59
2022/11/25 08:58:34;;;;;;;2.97;2.00;;;;;;;12.46;69.00;99386.34;5109308;28;20227;-60
2022/11/25 09:01:02;;;;;;;3.20;2.30;;;;;;;12.53;68.13;99392.16;5108888;28;20218;-55
2022/11/25 09:03:32;;;;;;;5.73;2.57;;;;;;;12.60;68.20;99391.03;5109326;27;20693;-59
2022/11/25 09:06:00;;;;;;;5.67;2.47;;;;;;;12.77;67.59;99388.59;5109730;28;20257;-55
2022/11/25 09:08:27;;;;;;;3.87;2.20;;;;;;;12.82;67.07;99386.69;5109541;28;20229;-55
2022/11/25 09:10:54;;;;;;;2.50;2.30;;;;;;;12.87;66.47;99384.72;5109954;28;20222;-54
2022/11/25 09:13:21;;;;;;;4.67;2.60;;;;;;;12.94;66.13;99385.34;5109336;28;20218;-54
2022/11/25 09:15:49;;;;;;;3.13;2.00;;;;;;;13.11;65.83;99380.28;5108817;28;20326;-58
2022/11/25 09:18:18;;;;;;;2.83;2.33;;;;;;;13.29;64.37;99370.88;5109189;28;20244;-59
2022/11/25 09:20:46;;;;;;;6.57;1.80;;;;;;;13.15;63.60;99379.28;5109049;28;20237;-58
2022/11/25 09:23:14;;;;;;;3.17;2.10;;;;;;;13.19;63.32;99373.03;5109376;28;20225;-54
2022/11/25 09:25:41;;;;;;;3.57;2.40;;;;;;;13.20;62.74;99386.91;5107761;28;20287;-54
2022/11/25 09:28:10;;;;;;;12.43;2.60;;;;;;;13.15;62.31;99399.28;5109903;28;20268;-55
2022/11/25 09:30:38;;;;;;;9.17;4.17;;;;;;;13.07;62.41;99391.75;5108607;28;20223;-58
2022/11/25 09:33:06;;;;;;;8.07;5.27;;;;;;;13.06;63.28;99395.25;5102104;28;20300;-58
2022/11/25 09:35:33;;;;;;;10.73;5.27;;;;;;;12.95;63.17;99400.91;5090586;28;20221;-58
2022/11/25 09:38:00;;;;;;;3.80;3.10;;;;;;;12.98;63.35;99386.91;5093291;28;20845;-58
2022/11/25 09:40:36;;;;;;;7.40;5.93;;;;;;;13.05;63.06;99396.16;5093445;28;20241;-58
2022/11/25 09:49:12;;;;;;;5.33;4.20;;;;;;;13.11;62.51;99382.88;5050889;28;20692;-58
2022/11/25 09:51:50;;;;;;;9.60;3.63;;;;;;;13.15;62.48;99400.13;5086032;28;20226;-59
2022/11/25 09:54:23;;;;;;;3.00;2.47;;;;;;;13.15;62.56;99386.25;5093208;28;20225;-58
2022/11/25 09:56:55;;;;;;;3.10;2.80;;;;;;;13.13;62.55;99386.28;5093257;28;20297;-60
2022/11/25 09:59:29;;;;;;;5.57;3.43;;;;;;;13.09;62.52;99377.72;5092515;28;20215;-59
2022/11/25 10:02:01;;;;;;;5.20;3.13;;;;;;;13.07;62.42;99366.53;5092817;28;20326;-59
2022/11/25 10:04:33;;;;;;;3.27;2.97;;;;;;;13.02;62.01;99367.63;5110823;28;20258;-58
2022/11/25 10:07:04;;;;;;;4.63;3.30;;;;;;;13.03;62.26;99375.38;5113357;27;20228;-59
2022/11/25 10:09:34;;;;;;;4.60;3.93;;;;;;;13.04;62.24;99368.41;5113379;28;20225;-58
2022/11/25 10:12:06;;;;;;;3.27;2.20;;;;;;;13.14;61.66;99361.06;5113259;27;20690;-58
2022/11/25 10:14:38;;;;;;;3.33;2.07;;;;;;;13.24;61.57;99365.84;5111323;28;20218;-57
2022/11/25 10:17:13;;;;;;;3.10;2.80;;;;;;;13.43;61.24;99360.75;5112121;27;20229;-59
2022/11/25 10:19:51;;;;;;;2.10;2.00;;;;;;;13.55;60.88;99356.72;5112623;27;20641;-55
2022/11/25 10:22:24;;;;;;;3.03;2.83;;;;;;;13.69;60.16;99365.66;5112246;27;20230;-58
2022/11/25 10:24:53;;;;;;;2.50;2.30;;;;;;;13.74;58.72;99368.91;5112138;28;20222;-60
2022/11/25 10:27:27;;;;;;;2.73;2.53;;;;;;;13.79;58.53;99355.66;5112364;27;20682;-59
2022/11/25 10:30:02;;;;;;;3.13;2.23;;;;;;;13.62;58.84;99368.59;5109737;28;20223;-59
2022/11/25 10:32:36;;;;;;;6.30;2.23;;;;;;;13.49;59.01;99359.59;5111939;27;20249;-60
2022/11/25 10:35:15;;;;;;;2.40;2.20;;;;;;;13.49;59.50;99364.81;5101801;28;20236;-60
2022/11/25 10:37:45;;;;;;;3.63;1.90;;;;;;;13.42;59.24;99370.31;5092114;28;20583;-58
2022/11/25 10:40:15;;;;;;;4.37;1.70;;;;;;;13.43;59.08;99355.53;5092291;28;20229;-59
2022/11/25 10:42:43;;;;;;;1.80;1.70;;;;;;;13.14;58.95;99320.25;5092051;28;20227;-58
2022/11/25 10:45:11;;;;;;;7.97;3.20;;;;;;;13.34;59.47;99363.72;5091959;28;20603;-60
2022/11/25 10:47:57;;;;;;;7.37;2.03;;;;;;;13.35;59.49;99358.44;5106554;28;20205;-60
2022/11/25 10:50:33;;;;;;;2.47;2.27;;;;;;;13.35;60.02;99363.66;5109032;28;20249;-58
2022/11/25 10:53:05;;;;;;;2.10;2.00;;;;;;;13.38;59.16;99366.13;5112225;28;20221;-59
2022/11/25 10:55:33;;;;;;;4.23;2.27;;;;;;;13.39;59.73;99361.78;5112024;28;20190;-60
2022/11/25 10:58:25;;;;;;;2.23;1.73;;;;;;;13.31;59.79;99369.06;5111989;28;20268;-60
2022/11/25 11:01:02;;;;;;;2.83;2.63;;;;;;;13.21;59.78;99359.91;5110187;28;20199;-58
2022/11/25 11:03:29;;;;;;;3.90;3.60;;;;;;;13.24;60.04;99365.00;5109714;28;20637;-60
2022/11/25 11:05:58;;;;;;;4.93;3.03;;;;;;;13.18;59.99;99371.34;5111956;28;20364;-59
2022/11/25 11:08:28;;;;;;;5.83;5.40;;;;;;;13.18;60.26;99375.72;5109262;28;20190;-59
2022/11/25 11:11:19;;;;;;;5.83;5.40;;;;;;;13.26;60.32;99368.41;5111846;27;20655;-59
2022/11/25 11:13:49;;;;;;;2.90;2.60;;;;;;;13.29;60.28;99374.34;5109403;28;20217;-59
2022/11/25 11:16:27;;;;;;;3.30;2.43;;;;;;;13.19;60.45;99361.78;5111680;28;20194;-60
2022/11/25 11:18:55;;;;;;;2.17;2.07;;;;;;;13.28;60.68;99377.88;5110107;28;20222;-60
2022/11/25 11:21:29;;;;;;;6.47;2.67;;;;;;;13.35;60.42;99370.63;5110898;28;20209;-60
2022/11/25 11:23:58;;;;;;;10.07;2.47;;;;;;;13.35;60.25;99368.00;5109158;28;20202;-59
2022/11/25 11:26:28;;;;;;;2.77;2.27;;;;;;;13.24;60.12;99350.22;5110272;28;20689;-58
2022/11/25 11:29:04;;;;;;;2.60;2.40;;;;;;;13.30;60.49;99364.78;5110795;28;20247;-59
2022/11/25 11:31:38;;;;;;;2.40;2.20;;;;;;;13.43;60.58;99358.13;5108735;28;20190;-59
2022/11/25 11:34:33;;;;;;;3.30;3.00;;;;;;;13.52;60.51;99372.53;5107909;28;20194;-60
2022/11/25 11:37:22;;;;;;;1.90;1.80;;;;;;;13.57;60.04;99376.59;5110001;28;20198;-60
2022/11/25 11:40:03;;;;;;;2.00;1.90;;;;;;;13.66;59.15;99375.34;5107900;28;20698;-56
2022/11/25 11:42:39;;;;;;;2.43;2.23;;;;;;;13.65;59.63;99373.69;5107725;28;20217;-60
2022/11/25 11:45:24;;;;;;;2.50;2.30;;;;;;;13.66;59.86;99385.78;5109461;28;20211;-60
2022/11/25 11:48:04;;;;;;;5.20;3.27;;;;;;;13.59;59.80;99380.00;5108531;28;20198;-59
2022/11/25 11:50:34;;;;;;;6.43;2.87;;;;;;;13.63;59.85;99380.72;5108544;28;20578;-59
2022/11/25 11:53:11;;;;;;;7.47;3.40;;;;;;;13.68;60.39;99383.97;5108675;28;20202;-59
2022/11/25 11:55:56;;;;;;;8.17;3.93;;;;;;;13.67;60.52;99371.84;5108151;28;20662;-58
2022/11/25 11:58:37;;;;;;;4.13;2.60;;;;;;;13.69;60.36;99383.91;5108929;28;20199;-59
2022/11/25 12:01:20;;;;;;;4.03;2.23;;;;;;;13.73;59.61;99379.41;5109988;28;20191;-60